Time;durP1;ratioP1;P1;durP2;ratioP2;P2;SDS_P1;SDS_P2;PMS_P1;PMS_P2;Temp;Humidity;BMP_temperature;BMP_pressure;BME280_temperature;BME280_humidity;BME280_pressure;Samples;Min_cycle;Max_cycle;Signal;HPM_P1;HPM_P2
2021/11/07 00:01:56;;;;;;;72.20;44.38;;;;;;;;;;5060695;28;20431;-85
2021/11/07 00:04:42;;;;;;;63.70;41.05;;;;;;;;;;5061035;28;20123;-85
2021/11/07 00:07:29;;;;;;;64.18;40.95;;;;;;;;;;5077904;28;20073;-84
2021/11/07 00:10:16;;;;;;;59.42;37.92;;;;;;;;;;5060936;28;20032;-85
2021/11/07 00:16:00;;;;;;;59.45;40.00;;;;;;;;;;5077460;28;20369;-84
2021/11/07 00:18:40;;;;;;;62.65;37.90;;;;;;;;;;5077461;28;20045;-84
2021/11/07 00:21:21;;;;;;;57.83;36.55;;;;;;;;;;5077462;28;20071;-85
2021/11/07 00:24:10;;;;;;;58.58;39.10;;;;;;;;;;5060598;28;20056;-84
2021/11/07 00:29:25;;;;;;;55.70;38.55;;;;;;;;;;5084832;28;20097;-86
2021/11/07 00:32:01;;;;;;;54.25;37.67;;;;;;;;;;5098155;28;20039;-86
2021/11/07 00:37:17;;;;;;;52.00;36.60;;;;;;;;;;5099505;28;20031;-86
2021/11/07 00:40:03;;;;;;;50.60;35.70;;;;;;;;;;5099411;28;20073;-85
2021/11/07 00:46:09;;;;;;;54.97;35.92;;;;;;;;;;5099191;28;20031;-86
2021/11/07 00:51:29;;;;;;;50.78;32.92;;;;;;;;;;5076840;28;20107;-85
2021/11/07 01:02:47;;;;;;;45.03;32.30;;;;;;;;;;5076989;28;20062;-84
2021/11/07 01:05:17;;;;;;;48.85;32.47;;;;;;;;;;5058005;28;20044;-84
2021/11/07 01:07:43;;;;;;;49.10;33.03;;;;;;;;;;5076488;28;20462;-83
2021/11/07 01:10:10;;;;;;;44.15;30.98;;;;;;;;;;5076446;28;20028;-84
2021/11/07 01:12:36;;;;;;;45.60;30.90;;;;;;;;;;5075516;28;20031;-85
2021/11/07 01:15:04;;;;;;;43.00;32.25;;;;;;;;;;5059857;28;20037;-86
2021/11/07 01:17:30;;;;;;;43.90;32.25;;;;;;;;;;5076592;28;20025;-86
2021/11/07 01:19:57;;;;;;;47.45;31.08;;;;;;;;;;5076409;28;20021;-86
2021/11/07 01:22:34;;;;;;;43.85;30.70;;;;;;;;;;5059638;28;20334;-85
2021/11/07 01:25:01;;;;;;;40.53;29.60;;;;;;;;;;5076372;28;20029;-85
2021/11/07 01:29:56;;;;;;;41.22;30.58;;;;;;;;;;5098158;28;20025;-87
2021/11/07 01:32:24;;;;;;;41.38;30.17;;;;;;;;;;5098069;28;20481;-85
2021/11/07 01:37:41;;;;;;;47.15;33.05;;;;;;;;;;5098443;28;20059;-85
2021/11/07 01:40:29;;;;;;;50.33;35.10;;;;;;;;;;5098055;28;20028;-85
2021/11/07 01:46:22;;;;;;;48.55;34.22;;;;;;;;;;5097980;28;20421;-85
2021/11/07 01:51:47;;;;;;;52.95;33.83;;;;;;;;;;5075844;28;20035;-84
2021/11/07 01:54:31;;;;;;;48.55;33.40;;;;;;;;;;5076034;28;20081;-85
2021/11/07 01:56:57;;;;;;;49.72;34.80;;;;;;;;;;5076038;28;20103;-84
2021/11/07 01:59:23;;;;;;;54.08;35.17;;;;;;;;;;5075896;28;20065;-85
2021/11/07 02:01:56;;;;;;;51.80;36.15;;;;;;;;;;5059281;28;20036;-85
2021/11/07 02:04:22;;;;;;;51.72;37.60;;;;;;;;;;5058782;28;20060;-85
2021/11/07 02:06:48;;;;;;;47.50;34.88;;;;;;;;;;5075819;28;20098;-85
2021/11/07 02:09:14;;;;;;;46.60;34.72;;;;;;;;;;5058926;28;20033;-86
2021/11/07 02:11:40;;;;;;;48.13;34.35;;;;;;;;;;5058939;28;20119;-85
2021/11/07 02:17:10;;;;;;;50.17;35.10;;;;;;;;;;5075936;28;20027;-85
2021/11/07 02:19:37;;;;;;;49.97;34.10;;;;;;;;;;5075869;28;20054;-86
2021/11/07 02:22:03;;;;;;;56.38;37.60;;;;;;;;;;5075852;28;20040;-86
2021/11/07 02:24:30;;;;;;;74.07;50.92;;;;;;;;;;5079326;28;20028;-86
2021/11/07 02:27:09;;;;;;;65.97;41.03;;;;;;;;;;5079707;28;20040;-85
2021/11/07 02:29:36;;;;;;;57.45;37.60;;;;;;;;;;5096776;28;20039;-86
2021/11/07 02:32:03;;;;;;;52.85;37.97;;;;;;;;;;5100534;28;20418;-86
2021/11/07 02:34:31;;;;;;;50.08;37.55;;;;;;;;;;5101673;28;20070;-85
2021/11/07 02:36:57;;;;;;;58.83;37.05;;;;;;;;;;5101846;28;20024;-85
2021/11/07 02:39:24;;;;;;;53.38;36.33;;;;;;;;;;5101700;28;20027;-86
2021/11/07 02:41:50;;;;;;;56.33;36.13;;;;;;;;;;5101452;28;20028;-86
2021/11/07 02:44:37;;;;;;;48.10;33.70;;;;;;;;;;5100419;28;20028;-86
2021/11/07 02:47:04;;;;;;;44.63;32.10;;;;;;;;;;5100332;28;20329;-85
2021/11/07 02:49:30;;;;;;;42.08;31.42;;;;;;;;;;5100230;28;20024;-84
2021/11/07 02:51:57;;;;;;;41.95;30.45;;;;;;;;;;5100060;28;20028;-85
2021/11/07 02:54:24;;;;;;;39.13;28.92;;;;;;;;;;5101290;28;20041;-85
2021/11/07 02:56:51;;;;;;;43.50;29.65;;;;;;;;;;5101108;28;20020;-86
2021/11/07 03:02:39;;;;;;;42.40;28.55;;;;;;;;;;5101034;28;20047;-86
2021/11/07 03:05:07;;;;;;;39.40;27.63;;;;;;;;;;5099901;28;20503;-85
2021/11/07 03:07:33;;;;;;;40.85;28.88;;;;;;;;;;5099961;28;20047;-86
2021/11/07 03:09:59;;;;;;;43.70;28.70;;;;;;;;;;5100171;28;20074;-86
2021/11/07 03:12:25;;;;;;;37.17;27.88;;;;;;;;;;5100130;28;20040;-86
2021/11/07 03:14:52;;;;;;;38.30;27.88;;;;;;;;;;5100878;28;20409;-86
2021/11/07 03:17:21;;;;;;;39.38;28.25;;;;;;;;;;5101097;28;20038;-86
2021/11/07 03:19:47;;;;;;;38.97;27.98;;;;;;;;;;5099803;28;20020;-87
2021/11/07 03:22:15;;;;;;;37.35;28.25;;;;;;;;;;5099959;28;20085;-87
2021/11/07 03:24:42;;;;;;;41.17;28.50;;;;;;;;;;5100734;28;20019;-87
2021/11/07 03:30:27;;;;;;;43.13;27.95;;;;;;;;;;5100364;28;20031;-87
2021/11/07 03:32:57;;;;;;;41.42;29.55;;;;;;;;;;5099536;28;20024;-86
2021/11/07 03:35:23;;;;;;;45.42;31.02;;;;;;;;;;5098997;28;20260;-86
2021/11/07 03:37:56;;;;;;;48.22;31.45;;;;;;;;;;5099706;28;20032;-85
2021/11/07 03:40:23;;;;;;;45.65;31.15;;;;;;;;;;5100627;28;20024;-87
2021/11/07 03:43:08;;;;;;;49.28;32.17;;;;;;;;;;5100258;28;20386;-88
2021/11/07 03:45:34;;;;;;;47.22;30.80;;;;;;;;;;5099209;28;20027;-88
2021/11/07 03:48:02;;;;;;;53.80;32.42;;;;;;;;;;5100466;28;20031;-87
2021/11/07 03:50:28;;;;;;;48.80;31.27;;;;;;;;;;5099143;28;20028;-88
2021/11/07 03:52:54;;;;;;;54.15;31.17;;;;;;;;;;5100131;28;20020;-87
2021/11/07 03:55:20;;;;;;;45.40;30.67;;;;;;;;;;5100336;28;20024;-88
2021/11/07 03:57:46;;;;;;;47.47;29.48;;;;;;;;;;5100245;28;20109;-88
2021/11/07 04:00:14;;;;;;;48.78;30.30;;;;;;;;;;5099154;28;20028;-88
2021/11/07 04:02:40;;;;;;;47.70;31.13;;;;;;;;;;5099851;28;20409;-88
2021/11/07 04:05:09;;;;;;;49.45;31.35;;;;;;;;;;5099672;28;20326;-87
2021/11/07 04:07:35;;;;;;;52.65;32.28;;;;;;;;;;5099684;28;20428;-86
2021/11/07 04:10:01;;;;;;;55.45;33.10;;;;;;;;;;5099768;28;20092;-84
2021/11/07 04:15:31;;;;;;;54.03;33.92;;;;;;;;;;5099615;28;20027;-84
2021/11/07 04:17:58;;;;;;;54.97;32.05;;;;;;;;;;5098524;28;20129;-85
2021/11/07 04:20:24;;;;;;;51.65;32.78;;;;;;;;;;5098480;28;20024;-85
2021/11/07 04:22:50;;;;;;;50.00;30.02;;;;;;;;;;5099814;28;20077;-85
2021/11/07 04:25:16;;;;;;;45.50;29.70;;;;;;;;;;5099320;28;20020;-85
2021/11/07 04:27:42;;;;;;;43.50;28.45;;;;;;;;;;5099121;28;20424;-85
2021/11/07 04:30:09;;;;;;;45.22;29.45;;;;;;;;;;5098317;28;20039;-85
2021/11/07 04:32:35;;;;;;;40.35;28.77;;;;;;;;;;5099486;28;20104;-85
2021/11/07 04:35:01;;;;;;;38.25;27.58;;;;;;;;;;5099363;28;20016;-85
2021/11/07 04:37:28;;;;;;;40.47;27.38;;;;;;;;;;5098697;28;20027;-85
2021/11/07 04:39:55;;;;;;;41.50;29.60;;;;;;;;;;5099464;28;20031;-84
2021/11/07 04:45:43;;;;;;;37.28;26.65;;;;;;;;;;5099262;28;20045;-85
2021/11/07 04:48:09;;;;;;;45.22;27.60;;;;;;;;;;5098712;28;20028;-84
2021/11/07 04:50:39;;;;;;;56.20;36.50;;;;;;;;;;5099034;28;20024;-84
2021/11/07 04:53:07;;;;;;;53.92;34.33;;;;;;;;;;5097798;28;20024;-85
2021/11/07 04:55:35;;;;;;;61.60;38.28;;;;;;;;;;5098801;28;20031;-85
2021/11/07 04:58:01;;;;;;;65.97;42.78;;;;;;;;;;5097663;28;20030;-85
2021/11/07 05:00:27;;;;;;;73.28;44.50;;;;;;;;;;5097597;28;20031;-86
2021/11/07 05:02:53;;;;;;;74.93;45.47;;;;;;;;;;5098711;28;20106;-85
2021/11/07 05:05:20;;;;;;;77.10;43.75;;;;;;;;;;5098437;28;20388;-86
2021/11/07 05:07:46;;;;;;;72.57;44.60;;;;;;;;;;5098832;28;20043;-85
2021/11/07 05:10:12;;;;;;;70.30;42.58;;;;;;;;;;5098835;28;20078;-85
2021/11/07 05:15:42;;;;;;;77.40;44.08;;;;;;;;;;5098680;28;20097;-84
2021/11/07 05:18:08;;;;;;;92.00;46.80;;;;;;;;;;5098696;28;20097;-84
2021/11/07 05:20:35;;;;;;;90.28;47.33;;;;;;;;;;5098311;28;20110;-84
2021/11/07 05:23:01;;;;;;;73.38;40.63;;;;;;;;;;5076956;28;20031;-86
2021/11/07 05:25:27;;;;;;;73.65;42.08;;;;;;;;;;5078036;28;20021;-87
2021/11/07 05:27:54;;;;;;;79.18;41.67;;;;;;;;;;5078191;28;20040;-87
2021/11/07 05:30:20;;;;;;;73.45;36.47;;;;;;;;;;5077787;28;20056;-87
2021/11/07 05:32:46;;;;;;;54.97;35.85;;;;;;;;;;5077834;28;20028;-87
2021/11/07 05:35:14;;;;;;;53.95;34.72;;;;;;;;;;5077969;28;20025;-87
2021/11/07 05:37:40;;;;;;;58.75;36.70;;;;;;;;;;5077622;28;20069;-86
2021/11/07 05:40:07;;;;;;;63.15;40.40;;;;;;;;;;5087440;28;20100;-85
2021/11/07 05:42:33;;;;;;;64.60;39.47;;;;;;;;;;5078108;28;20027;-85
2021/11/07 05:48:40;;;;;;;100.03;52.55;;;;;;;;;;5077892;28;20059;-85
2021/11/07 05:51:07;;;;;;;101.93;52.42;;;;;;;;;;5077534;28;20028;-85
2021/11/07 05:53:33;;;;;;;76.22;43.10;;;;;;;;;;5082070;28;20009;-86
2021/11/07 05:55:59;;;;;;;75.22;42.38;;;;;;;;;;5077743;28;20027;-85
2021/11/07 06:04:33;;;;;;;53.65;33.83;;;;;;;;;;5064373;28;20450;-85
2021/11/07 06:06:59;;;;;;;55.03;33.38;;;;;;;;;;5077627;28;20089;-85
2021/11/07 06:09:25;;;;;;;53.95;32.75;;;;;;;;;;5077588;28;20028;-85
2021/11/07 06:11:51;;;;;;;57.97;33.03;;;;;;;;;;5086262;28;20031;-84
2021/11/07 06:14:17;;;;;;;75.35;34.40;;;;;;;;;;5097546;28;20024;-85
2021/11/07 06:16:43;;;;;;;52.13;33.92;;;;;;;;;;5081235;28;20086;-84
2021/11/07 06:19:09;;;;;;;87.43;46.20;;;;;;;;;;5078581;28;20020;-84
2021/11/07 06:21:37;;;;;;;82.07;46.58;;;;;;;;;;5077366;28;20434;-84
2021/11/07 06:24:07;;;;;;;81.40;46.78;;;;;;;;;;5077287;28;20035;-85
2021/11/07 06:26:33;;;;;;;74.38;42.75;;;;;;;;;;5077552;28;20418;-85
2021/11/07 06:29:00;;;;;;;62.63;37.92;;;;;;;;;;5077423;28;20045;-85
2021/11/07 06:31:26;;;;;;;62.83;38.25;;;;;;;;;;5076514;28;20038;-85
2021/11/07 06:33:52;;;;;;;64.05;37.53;;;;;;;;;;5096677;28;20035;-85
2021/11/07 06:36:18;;;;;;;73.57;42.17;;;;;;;;;;5096476;28;20359;-85
2021/11/07 06:38:44;;;;;;;68.10;42.20;;;;;;;;;;5079510;28;20070;-84
2021/11/07 06:41:11;;;;;;;69.30;42.53;;;;;;;;;;5077111;28;20414;-85
2021/11/07 06:44:14;;;;;;;70.15;42.92;;;;;;;;;;5077099;28;20032;-85
2021/11/07 06:46:41;;;;;;;54.15;32.22;;;;;;;;;;5077162;28;20418;-85
2021/11/07 06:49:09;;;;;;;60.78;28.80;;;;;;;;;;5077300;28;20024;-85
2021/11/07 06:51:36;;;;;;;46.53;28.67;;;;;;;;;;5087985;28;20032;-86
2021/11/07 06:54:02;;;;;;;49.55;29.00;;;;;;;;;;5097492;28;20024;-86
2021/11/07 06:56:28;;;;;;;62.38;31.88;;;;;;;;;;5096206;28;20322;-86
2021/11/07 06:58:56;;;;;;;51.72;32.92;;;;;;;;;;5096179;28;20016;-86
2021/11/07 07:01:22;;;;;;;62.22;37.85;;;;;;;;;;5086730;28;20037;-86
2021/11/07 07:03:48;;;;;;;50.95;34.28;;;;;;;;;;5076211;28;20043;-86
2021/11/07 07:06:15;;;;;;;45.42;30.35;;;;;;;;;;5076739;28;20150;-86
2021/11/07 07:08:48;;;;;;;46.75;31.63;;;;;;;;;;5077084;28;20062;-86
2021/11/07 07:11:21;;;;;;;40.03;30.38;;;;;;;;;;5086424;28;20036;-85
2021/11/07 07:13:55;;;;;;;41.50;30.00;;;;;;;;;;5079782;28;20033;-86
2021/11/07 07:22:04;;;;;;;47.83;32.22;;;;;;;;;;5059090;28;20075;-87
2021/11/07 07:35:05;;;;;;;47.65;31.45;;;;;;;;;;5067248;28;20058;-86
2021/11/07 07:37:31;;;;;;;45.75;30.50;;;;;;;;;;5061540;28;20028;-89
2021/11/07 07:39:57;;;;;;;49.45;32.75;;;;;;;;;;5059233;28;20067;-89
2021/11/07 07:42:23;;;;;;;51.55;32.97;;;;;;;;;;5041191;28;20124;-88
2021/11/07 07:44:52;;;;;;;60.40;36.10;;;;;;;;;;5058621;28;20124;-89
2021/11/07 07:47:19;;;;;;;53.42;33.95;;;;;;;;;;5060954;28;20032;-87
2021/11/07 07:49:45;;;;;;;65.35;37.72;;;;;;;;;;5061168;28;20032;-88
2021/11/07 07:52:11;;;;;;;69.63;40.83;;;;;;;;;;5068011;28;20422;-87
2021/11/07 07:54:37;;;;;;;55.35;35.22;;;;;;;;;;5057902;28;20025;-88
2021/11/07 07:57:04;;;;;;;61.58;37.35;;;;;;;;;;5062980;28;20044;-93
2021/11/07 07:59:30;;;;;;;60.25;36.85;;;;;;;;;;5083277;28;20051;-89
2021/11/07 08:01:58;;;;;;;78.88;48.17;;;;;;;;;;5079965;28;20028;-86
2021/11/07 08:04:24;;;;;;;65.28;41.78;;;;;;;;;;5078550;28;20028;-89
2021/11/07 08:06:51;;;;;;;64.60;41.88;;;;;;;;;;5079520;28;20036;-84
2021/11/07 08:09:17;;;;;;;56.38;36.55;;;;;;;;;;5084753;28;20027;-85
2021/11/07 08:11:43;;;;;;;50.47;32.90;;;;;;;;;;5081677;28;20046;-79
2021/11/07 08:14:09;;;;;;;52.10;33.83;;;;;;;;;;5077928;28;20440;-79
2021/11/07 08:16:37;;;;;;;55.30;34.75;;;;;;;;;;5077968;28;20370;-79
2021/11/07 08:19:04;;;;;;;65.88;41.63;;;;;;;;;;5078578;28;20027;-79
2021/11/07 08:21:37;;;;;;;59.95;37.45;;;;;;;;;;5077639;28;20082;-79
2021/11/07 08:24:04;;;;;;;50.72;31.17;;;;;;;;;;5078689;28;20021;-79
2021/11/07 08:26:32;;;;;;;52.00;33.72;;;;;;;;;;5078756;28;20029;-79
2021/11/07 08:28:58;;;;;;;47.17;31.80;;;;;;;;;;5078444;28;20406;-79
2021/11/07 08:31:27;;;;;;;60.75;35.55;;;;;;;;;;5078484;28;20036;-81
2021/11/07 08:33:53;;;;;;;57.63;36.13;;;;;;;;;;5078432;28;20402;-79
2021/11/07 08:36:25;;;;;;;53.50;35.15;;;;;;;;;;5078590;28;20025;-79
2021/11/07 08:39:02;;;;;;;94.32;48.78;;;;;;;;;;5078475;28;20024;-78
2021/11/07 08:41:30;;;;;;;71.78;42.00;;;;;;;;;;5077163;28;20422;-79
2021/11/07 09:05:25;;;;;;;55.53;34.80;;;;;;;;;;5077985;28;20319;-79
2021/11/07 09:10:34;;;;;;;51.60;33.13;;;;;;;;;;5077744;28;20029;-78
2021/11/07 09:13:02;;;;;;;50.50;33.10;;;;;;;;;;5077769;28;20098;-78
2021/11/07 09:15:30;;;;;;;51.65;32.85;;;;;;;;;;5077566;28;20020;-79
2021/11/07 09:17:57;;;;;;;53.95;32.83;;;;;;;;;;5077816;28;20046;-79
2021/11/07 09:20:33;;;;;;;56.28;32.42;;;;;;;;;;5077727;28;20043;-79
2021/11/07 09:23:04;;;;;;;57.45;34.78;;;;;;;;;;5077591;28;20381;-79
2021/11/07 09:25:41;;;;;;;70.30;37.50;;;;;;;;;;5077371;28;20025;-79
2021/11/07 09:28:28;;;;;;;54.83;32.70;;;;;;;;;;5076396;28;20028;-79
2021/11/07 09:31:07;;;;;;;53.58;33.28;;;;;;;;;;5077154;28;20116;-79
2021/11/07 09:36:14;;;;;;;62.47;37.88;;;;;;;;;;5077376;28;20024;-79
2021/11/07 09:41:33;;;;;;;65.15;38.05;;;;;;;;;;5077336;28;20032;-79
2021/11/07 09:44:07;;;;;;;179.30;91.20;;;;;;;;;;5077301;28;20017;-79
2021/11/07 09:46:38;;;;;;;59.03;37.60;;;;;;;;;;5077268;28;20320;-79
2021/11/07 09:49:26;;;;;;;57.57;35.30;;;;;;;;;;5076179;28;20028;-79
2021/11/07 09:52:00;;;;;;;65.22;40.33;;;;;;;;;;5077199;28;20269;-79
2021/11/07 09:54:28;;;;;;;78.40;49.63;;;;;;;;;;5077186;28;20025;-79
2021/11/07 09:56:55;;;;;;;65.55;41.15;;;;;;;;;;5077292;28;20337;-79
2021/11/07 09:59:23;;;;;;;62.83;40.17;;;;;;;;;;5077072;28;20031;-78
2021/11/07 10:01:57;;;;;;;66.03;40.95;;;;;;;;;;5076942;28;20039;-79
2021/11/07 10:04:26;;;;;;;61.30;39.92;;;;;;;;;;5076976;28;20049;-80
2021/11/07 10:06:57;;;;;;;72.95;44.15;;;;;;;;;;5077157;28;20334;-79
2021/11/07 10:09:37;;;;;;;153.57;98.07;;;;;;;;;;5075921;28;20043;-79
2021/11/07 10:12:06;;;;;;;90.78;55.38;;;;;;;;;;5077109;28;20044;-79
2021/11/07 10:14:39;;;;;;;74.03;49.40;;;;;;;;;;5075685;28;20031;-78
2021/11/07 10:17:20;;;;;;;78.15;48.90;;;;;;;;;;5077127;28;20024;-79
2021/11/07 10:19:56;;;;;;;72.78;47.53;;;;;;;;;;5076722;28;20021;-79
2021/11/07 10:22:22;;;;;;;77.00;49.55;;;;;;;;;;5076773;28;20028;-79
2021/11/07 10:24:56;;;;;;;66.97;43.40;;;;;;;;;;5077054;28;20025;-79
2021/11/07 10:27:22;;;;;;;59.83;40.13;;;;;;;;;;5076753;28;20032;-79
2021/11/07 10:29:51;;;;;;;59.10;40.28;;;;;;;;;;5076672;28;20062;-79
2021/11/07 10:32:32;;;;;;;64.85;42.22;;;;;;;;;;5076623;28;20033;-78
2021/11/07 10:38:34;;;;;;;55.80;38.03;;;;;;;;;;5054694;28;20055;-79
2021/11/07 10:41:26;;;;;;;56.58;38.47;;;;;;;;;;5054724;28;20390;-79
2021/11/07 10:44:17;;;;;;;74.77;45.27;;;;;;;;;;5055505;28;20508;-78
2021/11/07 10:52:23;;;;;;;131.98;78.07;;;;;;;;;;5058494;28;20118;-79
2021/11/07 10:54:50;;;;;;;54.60;36.50;;;;;;;;;;5058502;28;20080;-78
2021/11/07 10:57:20;;;;;;;52.20;36.70;;;;;;;;;;5058319;28;20037;-79
2021/11/07 11:00:06;;;;;;;50.20;36.10;;;;;;;;;;5058210;28;20028;-79
2021/11/07 11:02:46;;;;;;;51.80;35.42;;;;;;;;;;5058050;28;20111;-79
2021/11/07 11:05:14;;;;;;;55.53;40.08;;;;;;;;;;5058149;28;20049;-78
2021/11/07 11:08:00;;;;;;;51.88;38.10;;;;;;;;;;5058241;28;20115;-79
2021/11/07 11:10:33;;;;;;;105.40;68.45;;;;;;;;;;5079200;28;20043;-78
2021/11/07 11:13:02;;;;;;;82.05;53.00;;;;;;;;;;5079917;28;20432;-79
2021/11/07 11:15:41;;;;;;;78.60;49.53;;;;;;;;;;5080068;28;20108;-79
2021/11/07 11:21:16;;;;;;;108.45;66.93;;;;;;;;;;5080459;28;20331;-79
2021/11/07 11:23:53;;;;;;;114.35;63.70;;;;;;;;;;5079979;28;20106;-79
2021/11/07 11:34:18;;;;;;;555.17;349.90;;;;;;;;;;5079630;28;20033;-79
2021/11/07 11:36:50;;;;;;;236.13;153.77;;;;;;;;;;5078541;28;20024;-78
2021/11/07 11:39:25;;;;;;;129.85;87.13;;;;;;;;;;5079542;28;20107;-79
2021/11/07 11:44:40;;;;;;;128.48;87.03;;;;;;;;;;5057427;28;20033;-79
2021/11/07 11:47:17;;;;;;;131.02;85.72;;;;;;;;;;5057410;28;20068;-79
2021/11/07 12:06:46;;;;;;;71.73;47.57;;;;;;;;;;5017322;28;20371;-78
2021/11/07 12:17:31;;;;;;;81.50;54.50;;;;;;;;;;4978288;28;20029;-79
2021/11/07 12:19:58;;;;;;;79.47;53.88;;;;;;;;;;4978205;28;20540;-79
2021/11/07 12:22:25;;;;;;;112.80;78.75;;;;;;;;;;4978057;28;20126;-82
2021/11/07 12:24:51;;;;;;;96.03;66.55;;;;;;;;;;4962109;28;20034;-82
2021/11/07 12:27:37;;;;;;;110.35;73.00;;;;;;;;;;4978369;28;20437;-82
2021/11/07 12:30:17;;;;;;;99.22;65.80;;;;;;;;;;4977914;28;20047;-82
2021/11/07 12:32:45;;;;;;;126.20;96.10;;;;;;;;;;4993890;28;20076;-82
2021/11/07 12:40:39;;;;;;;158.07;115.90;;;;;;;;;;5015886;28;20029;-82
2021/11/07 12:43:07;;;;;;;262.40;214.27;;;;;;;;;;5000564;28;20092;-82
2021/11/07 12:45:47;;;;;;;190.15;142.93;;;;;;;;;;5016504;28;20029;-82
2021/11/07 12:48:17;;;;;;;112.22;72.95;;;;;;;;;;5025983;28;20051;-82
2021/11/07 12:50:58;;;;;;;97.28;58.72;;;;;;;;;;5077975;28;20020;-82
2021/11/07 12:53:25;;;;;;;81.68;48.83;;;;;;;;;;5078191;28;20035;-82
2021/11/07 12:55:52;;;;;;;94.25;47.22;;;;;;;;;;5077023;28;20102;-81
2021/11/07 12:58:18;;;;;;;90.60;49.00;;;;;;;;;;5078260;28;20036;-82
2021/11/07 13:00:45;;;;;;;86.95;44.60;;;;;;;;;;5077054;28;20071;-82
2021/11/07 13:03:14;;;;;;;88.05;45.33;;;;;;;;;;5078140;28;20415;-82
2021/11/07 13:05:42;;;;;;;90.78;48.67;;;;;;;;;;5077590;28;20044;-81
2021/11/07 13:08:17;;;;;;;94.60;49.35;;;;;;;;;;5077448;28;20103;-82
2021/11/07 13:26:38;;;;;;;;;;;;;;;;;;5076532;28;20496;-82
2021/11/07 13:34:54;;;;;;;80.10;48.20;;;;;;;;;;5035523;28;20030;-82
2021/11/07 13:37:21;;;;;;;91.38;52.10;;;;;;;;;;5035707;28;20025;-82
2021/11/07 13:39:47;;;;;;;105.07;58.70;;;;;;;;;;5020981;28;20033;-82
2021/11/07 13:42:15;;;;;;;91.38;51.80;;;;;;;;;;5055305;28;20047;-82
2021/11/07 13:44:47;;;;;;;106.97;57.03;;;;;;;;;;5038684;28;20744;-82
2021/11/07 13:47:13;;;;;;;112.18;60.40;;;;;;;;;;5055440;28;20037;-82
2021/11/07 13:49:50;;;;;;;104.68;55.03;;;;;;;;;;5055555;28;20025;-82
2021/11/07 13:52:17;;;;;;;98.88;55.47;;;;;;;;;;5083580;28;20052;-83
2021/11/07 13:54:43;;;;;;;99.13;54.60;;;;;;;;;;5095550;28;20111;-82
2021/11/07 13:57:10;;;;;;;93.25;52.47;;;;;;;;;;5095663;28;20066;-82
2021/11/07 13:59:44;;;;;;;106.40;55.92;;;;;;;;;;5095535;28;20024;-82
2021/11/07 14:02:17;;;;;;;102.97;56.78;;;;;;;;;;5079114;28;20047;-82
2021/11/07 14:04:46;;;;;;;109.35;58.10;;;;;;;;;;5095366;28;20082;-82
2021/11/07 14:07:13;;;;;;;99.07;53.78;;;;;;;;;;5078841;28;20328;-82
2021/11/07 14:09:54;;;;;;;102.60;55.28;;;;;;;;;;5099920;28;20038;-82
2021/11/07 14:12:42;;;;;;;99.32;53.35;;;;;;;;;;5116647;28;20417;-82
2021/11/07 14:15:10;;;;;;;100.25;55.20;;;;;;;;;;5116896;28;20028;-82
2021/11/07 14:17:37;;;;;;;89.32;50.75;;;;;;;;;;5117685;28;20015;-82
2021/11/07 14:20:05;;;;;;;85.03;49.25;;;;;;;;;;5090041;28;20064;-82
2021/11/07 14:22:32;;;;;;;83.95;47.72;;;;;;;;;;5099778;28;20103;-83
2021/11/07 14:25:02;;;;;;;94.05;51.13;;;;;;;;;;5101726;28;20402;-83
2021/11/07 14:27:34;;;;;;;93.05;48.00;;;;;;;;;;5090779;28;20032;-83
2021/11/07 14:30:04;;;;;;;97.97;48.25;;;;;;;;;;5099723;28;20026;-83
2021/11/07 14:32:36;;;;;;;92.90;51.22;;;;;;;;;;5111365;28;20040;-83
2021/11/07 14:38:11;;;;;;;94.18;50.22;;;;;;;;;;5079145;28;20062;-82
2021/11/07 14:43:20;;;;;;;104.20;54.33;;;;;;;;;;5076668;28;20055;-83
2021/11/07 14:56:40;;;;;;;117.43;63.92;;;;;;;;;;5058740;28;20029;-86
2021/11/07 15:02:02;;;;;;;95.72;51.60;;;;;;;;;;5075837;28;20079;-87
2021/11/07 15:05:02;;;;;;;73.32;42.97;;;;;;;;;;5063431;28;20434;-81
2021/11/07 15:07:54;;;;;;;73.22;41.80;;;;;;;;;;4979179;28;20460;-86
2021/11/07 15:10:33;;;;;;;70.93;41.97;;;;;;;;;;4984576;28;20029;-80
2021/11/07 15:16:39;;;;;;;79.53;45.20;;;;;;;;;;4998477;28;20208;-81
2021/11/07 15:24:12;;;;;;;90.03;50.35;;;;;;;;;;4998647;28;20026;-85
2021/11/07 15:26:43;;;;;;;87.15;48.50;;;;;;;;;;5015042;28;20031;-80
2021/11/07 15:29:14;;;;;;;70.88;44.25;;;;;;;;;;4998567;28;20038;-81
2021/11/07 15:31:41;;;;;;;76.40;45.20;;;;;;;;;;4997275;28;20046;-80
2021/11/07 15:34:09;;;;;;;80.70;46.60;;;;;;;;;;4998582;28;20126;-80
2021/11/07 15:36:45;;;;;;;71.00;42.75;;;;;;;;;;5014779;28;20440;-80
2021/11/07 15:39:22;;;;;;;95.80;48.00;;;;;;;;;;5014723;28;20035;-80
2021/11/07 15:42:17;;;;;;;77.60;43.88;;;;;;;;;;4998485;28;20077;-80
2021/11/07 15:44:51;;;;;;;79.65;42.60;;;;;;;;;;4999586;28;20038;-80
2021/11/07 15:47:21;;;;;;;81.07;44.10;;;;;;;;;;5017731;28;20424;-80
2021/11/07 15:50:02;;;;;;;126.20;59.58;;;;;;;;;;5017879;28;20077;-80
2021/11/07 15:58:01;;;;;;;74.15;40.47;;;;;;;;;;5036465;28;20032;-80
2021/11/07 16:10:57;;;;;;;90.10;47.63;;;;;;;;;;5037305;28;20037;-80
2021/11/07 16:18:36;;;;;;;81.47;51.80;;;;;;;;;;5037212;28;20018;-80
2021/11/07 16:21:03;;;;;;;79.75;48.75;;;;;;;;;;5057360;28;20475;-80
2021/11/07 16:23:31;;;;;;;74.70;45.88;;;;;;;;;;5078673;28;20037;-80
2021/11/07 16:25:59;;;;;;;68.75;42.00;;;;;;;;;;5078748;28;20028;-80
2021/11/07 16:28:26;;;;;;;74.93;44.10;;;;;;;;;;5077665;28;20047;-80
2021/11/07 16:31:00;;;;;;;73.95;43.00;;;;;;;;;;5078815;28;20039;-80
2021/11/07 16:33:30;;;;;;;73.57;43.40;;;;;;;;;;5078852;28;20143;-80
2021/11/07 16:39:04;;;;;;;96.28;51.17;;;;;;;;;;5078511;28;20114;-80
2021/11/07 16:41:41;;;;;;;90.43;51.85;;;;;;;;;;5077012;28;20093;-80
2021/11/07 16:44:08;;;;;;;89.93;49.60;;;;;;;;;;5078452;28;20028;-80
2021/11/07 16:46:38;;;;;;;80.15;44.45;;;;;;;;;;5078234;28;20028;-80
2021/11/07 16:49:05;;;;;;;79.80;45.55;;;;;;;;;;5077373;28;20411;-80
2021/11/07 16:51:47;;;;;;;77.65;44.10;;;;;;;;;;5076948;28;20025;-80
2021/11/07 16:54:36;;;;;;;76.90;41.83;;;;;;;;;;5078410;28;20028;-80
2021/11/07 16:57:02;;;;;;;73.15;40.45;;;;;;;;;;5077425;28;20032;-81
2021/11/07 17:02:27;;;;;;;83.97;46.85;;;;;;;;;;5078294;28;20048;-80
2021/11/07 17:05:07;;;;;;;74.18;39.67;;;;;;;;;;5078075;28;20037;-80
2021/11/07 17:07:45;;;;;;;73.45;38.67;;;;;;;;;;5077091;28;20036;-80
2021/11/07 17:10:12;;;;;;;69.97;38.83;;;;;;;;;;5078129;28;20051;-80
2021/11/07 17:12:44;;;;;;;77.65;40.90;;;;;;;;;;5077480;28;20029;-80
2021/11/07 17:15:15;;;;;;;83.30;44.03;;;;;;;;;;5077672;28;20028;-80
2021/11/07 17:17:48;;;;;;;86.78;47.60;;;;;;;;;;5076887;28;20032;-81
2021/11/07 17:23:13;;;;;;;98.57;51.85;;;;;;;;;;5055764;28;20095;-80
2021/11/07 17:25:47;;;;;;;127.15;58.60;;;;;;;;;;5055770;28;20033;-80
2021/11/07 17:28:25;;;;;;;149.75;61.90;;;;;;;;;;5055796;28;20427;-80
2021/11/07 17:31:00;;;;;;;154.25;64.75;;;;;;;;;;5055629;28;20037;-80
2021/11/07 17:36:08;;;;;;;106.07;52.63;;;;;;;;;;5055653;28;20032;-80
2021/11/07 17:38:44;;;;;;;;;;;;;;;;;;5055905;28;20036;-80
2021/11/07 17:54:53;;;;;;;86.80;46.47;;;;;;;;;;4995401;28;19913;-80
2021/11/07 17:57:21;;;;;;;100.40;53.30;;;;;;;;;;4995984;28;20416;-80
2021/11/07 17:59:47;;;;;;;115.15;57.72;;;;;;;;;;4996038;28;20039;-80
2021/11/07 18:05:21;;;;;;;115.65;54.20;;;;;;;;;;4995958;28;20450;-80
2021/11/07 18:07:56;;;;;;;134.63;57.00;;;;;;;;;;4995963;28;20435;-80
2021/11/07 18:10:23;;;;;;;122.38;54.17;;;;;;;;;;4995789;28;20036;-80
2021/11/07 18:12:53;;;;;;;121.78;57.17;;;;;;;;;;4995505;28;20080;-80
2021/11/07 18:15:32;;;;;;;121.90;60.08;;;;;;;;;;4995709;28;20042;-80
2021/11/07 18:17:58;;;;;;;115.53;55.15;;;;;;;;;;4995812;28;20054;-80
2021/11/07 18:20:25;;;;;;;116.38;56.28;;;;;;;;;;4995878;28;20030;-80
2021/11/07 18:22:57;;;;;;;108.80;53.35;;;;;;;;;;4979512;28;20153;-80
2021/11/07 18:25:26;;;;;;;89.72;44.78;;;;;;;;;;4995828;28;20055;-80
2021/11/07 18:27:52;;;;;;;116.88;54.08;;;;;;;;;;5006651;28;20114;-80
2021/11/07 18:30:21;;;;;;;110.97;59.85;;;;;;;;;;5076690;28;20017;-80
2021/11/07 18:32:47;;;;;;;87.25;47.10;;;;;;;;;;5075947;28;20197;-80
2021/11/07 18:35:15;;;;;;;80.47;42.13;;;;;;;;;;5075910;28;20318;-80
2021/11/07 18:37:42;;;;;;;96.80;55.25;;;;;;;;;;5076759;28;20024;-81
2021/11/07 18:40:09;;;;;;;90.57;52.47;;;;;;;;;;5076825;28;20024;-80
2021/11/07 18:42:36;;;;;;;82.72;48.08;;;;;;;;;;5076687;28;20033;-80
2021/11/07 18:45:03;;;;;;;79.22;44.25;;;;;;;;;;5075734;28;20025;-80
2021/11/07 18:47:29;;;;;;;79.28;44.17;;;;;;;;;;5076925;28;20048;-80
2021/11/07 18:49:55;;;;;;;77.80;44.28;;;;;;;;;;5075792;28;20021;-80
2021/11/07 18:52:22;;;;;;;81.18;44.20;;;;;;;;;;5076606;28;20028;-80
2021/11/07 18:54:48;;;;;;;102.60;52.00;;;;;;;;;;5076508;28;20429;-80
2021/11/07 18:57:16;;;;;;;99.70;52.88;;;;;;;;;;5075706;28;20036;-80